Skip Navigation LinksHome page > Weather > Current weather Skip Navigation Links

Current Weather

Ronald Reagan Washington National, Washington

For information only: do not use for flight planning or navigation.
Latest weather
Observation time Thursday, April 24, 2014 3:52 AM EDT
Local time Thursday, April 24, 2014 4:26 AM EDT
Flight conditions Visual Meteorological Conditions
Winds
Wind direction Northwest (310°)
Wind speed 9 mph
Visibility 10 mi.
Sky condition
Ceiling unlimited
Sky clear
Temperature 47°F
Dewpoint 27°F
Altimeter 30.03 in.Hg
Derived measurements
Relative humidity 45%
Wind chill 43°F
Density altitude -850 ft.
Sea-level pressure 30.03 in.Hg
Remarks
System requires maintenance.
Automated weather observing station with precipitation discriminator.
METAR KDCA 240752Z 31008KT 10SM CLR 08/M03 A3003 RMK AO2 SLP170 T00831028 $

Settings

Location code

InnerDrive.Weather 4.0.4869.0 Release CLR 4.0.30319.18449
Copyright ©2013 Inner Drive Technology. All rights reserved. Portions Copyright ©1986-2013 David Braverman.

Find weather

Site navigation


Skip Navigation Links

Place info

Page info

PayPal - The safer, easier way to pay online!

Return home.

Copyright ©2014 Inner Drive Technology. Purveyors of fine, hand-crafted computer software. Page printed 2014-04-24T08:26:07 UTC.